sensor_id;sensor_type;location;lat;lon;timestamp;P1;durP1;ratioP1;P2;durP2;ratioP2
7104;SDS011;3594;42.152;24.714;2023-06-14T00:01:00;5.68;;;4.20;;
7104;SDS011;3594;42.152;24.714;2023-06-14T00:03:27;5.40;;;3.80;;
7104;SDS011;3594;42.152;24.714;2023-06-14T00:05:53;6.70;;;4.20;;
7104;SDS011;3594;42.152;24.714;2023-06-14T00:08:19;5.47;;;3.80;;
7104;SDS011;3594;42.152;24.714;2023-06-14T00:10:46;5.30;;;3.78;;
7104;SDS011;3594;42.152;24.714;2023-06-14T00:13:12;5.55;;;3.55;;
7104;SDS011;3594;42.152;24.714;2023-06-14T00:15:37;6.93;;;4.10;;
7104;SDS011;3594;42.152;24.714;2023-06-14T00:18:03;7.88;;;4.35;;
7104;SDS011;3594;42.152;24.714;2023-06-14T00:20:30;6.38;;;3.95;;
7104;SDS011;3594;42.152;24.714;2023-06-14T00:22:57;6.05;;;3.88;;
7104;SDS011;3594;42.152;24.714;2023-06-14T00:25:23;6.63;;;4.15;;
7104;SDS011;3594;42.152;24.714;2023-06-14T00:27:52;8.02;;;4.18;;
7104;SDS011;3594;42.152;24.714;2023-06-14T00:30:18;6.28;;;4.35;;
7104;SDS011;3594;42.152;24.714;2023-06-14T00:32:44;5.50;;;4.00;;
7104;SDS011;3594;42.152;24.714;2023-06-14T00:35:10;11.30;;;4.60;;
7104;SDS011;3594;42.152;24.714;2023-06-14T00:37:36;5.57;;;4.00;;
7104;SDS011;3594;42.152;24.714;2023-06-14T00:40:03;6.32;;;4.28;;
7104;SDS011;3594;42.152;24.714;2023-06-14T00:42:29;6.82;;;4.22;;
7104;SDS011;3594;42.152;24.714;2023-06-14T00:44:55;5.70;;;4.18;;
7104;SDS011;3594;42.152;24.714;2023-06-14T00:47:20;6.85;;;4.25;;
7104;SDS011;3594;42.152;24.714;2023-06-14T00:49:54;7.15;;;4.50;;
7104;SDS011;3594;42.152;24.714;2023-06-14T00:52:21;7.80;;;4.45;;
7104;SDS011;3594;42.152;24.714;2023-06-14T00:54:49;5.72;;;4.10;;
7104;SDS011;3594;42.152;24.714;2023-06-14T00:57:15;6.00;;;4.15;;
7104;SDS011;3594;42.152;24.714;2023-06-14T00:59:44;7.20;;;4.57;;
7104;SDS011;3594;42.152;24.714;2023-06-14T01:02:12;6.05;;;4.40;;
7104;SDS011;3594;42.152;24.714;2023-06-14T01:04:40;8.27;;;4.53;;
7104;SDS011;3594;42.152;24.714;2023-06-14T01:15:04;6.65;;;4.35;;
7104;SDS011;3594;42.152;24.714;2023-06-14T01:17:30;5.93;;;4.10;;
7104;SDS011;3594;42.152;24.714;2023-06-14T01:20:03;6.72;;;4.60;;
7104;SDS011;3594;42.152;24.714;2023-06-14T01:22:34;5.95;;;4.22;;
7104;SDS011;3594;42.152;24.714;2023-06-14T01:25:01;5.45;;;4.30;;
7104;SDS011;3594;42.152;24.714;2023-06-14T01:27:26;9.63;;;5.03;;
7104;SDS011;3594;42.152;24.714;2023-06-14T01:29:54;5.45;;;4.13;;
7104;SDS011;3594;42.152;24.714;2023-06-14T01:34:51;6.43;;;4.28;;
7104;SDS011;3594;42.152;24.714;2023-06-14T01:37:17;7.25;;;4.65;;
7104;SDS011;3594;42.152;24.714;2023-06-14T01:39:44;7.43;;;4.70;;
7104;SDS011;3594;42.152;24.714;2023-06-14T01:42:10;6.43;;;4.18;;
7104;SDS011;3594;42.152;24.714;2023-06-14T01:44:38;6.30;;;4.38;;
7104;SDS011;3594;42.152;24.714;2023-06-14T01:47:06;13.07;;;4.47;;
7104;SDS011;3594;42.152;24.714;2023-06-14T01:49:33;6.85;;;4.55;;
7104;SDS011;3594;42.152;24.714;2023-06-14T01:52:00;6.30;;;4.30;;
7104;SDS011;3594;42.152;24.714;2023-06-14T01:54:25;6.15;;;4.32;;
7104;SDS011;3594;42.152;24.714;2023-06-14T01:56:52;5.80;;;3.72;;
7104;SDS011;3594;42.152;24.714;2023-06-14T01:59:17;7.55;;;4.30;;
7104;SDS011;3594;42.152;24.714;2023-06-14T02:01:43;6.50;;;4.45;;
7104;SDS011;3594;42.152;24.714;2023-06-14T02:04:09;5.80;;;4.07;;
7104;SDS011;3594;42.152;24.714;2023-06-14T02:06:35;5.43;;;3.80;;
7104;SDS011;3594;42.152;24.714;2023-06-14T02:09:00;6.07;;;4.20;;
7104;SDS011;3594;42.152;24.714;2023-06-14T02:11:26;6.22;;;4.30;;
7104;SDS011;3594;42.152;24.714;2023-06-14T02:13:52;6.78;;;4.22;;
7104;SDS011;3594;42.152;24.714;2023-06-14T02:16:17;5.85;;;4.13;;
7104;SDS011;3594;42.152;24.714;2023-06-14T02:18:43;5.97;;;4.10;;
7104;SDS011;3594;42.152;24.714;2023-06-14T02:21:08;6.35;;;4.13;;
7104;SDS011;3594;42.152;24.714;2023-06-14T02:23:34;8.10;;;4.32;;
7104;SDS011;3594;42.152;24.714;2023-06-14T02:25:59;7.20;;;4.43;;
7104;SDS011;3594;42.152;24.714;2023-06-14T02:28:24;6.63;;;4.32;;
7104;SDS011;3594;42.152;24.714;2023-06-14T02:30:50;5.53;;;4.20;;
7104;SDS011;3594;42.152;24.714;2023-06-14T02:33:15;5.45;;;3.75;;
7104;SDS011;3594;42.152;24.714;2023-06-14T02:35:42;6.07;;;4.05;;
7104;SDS011;3594;42.152;24.714;2023-06-14T02:38:08;6.50;;;4.32;;
7104;SDS011;3594;42.152;24.714;2023-06-14T02:40:33;7.53;;;4.22;;
7104;SDS011;3594;42.152;24.714;2023-06-14T02:42:59;5.47;;;3.95;;
7104;SDS011;3594;42.152;24.714;2023-06-14T02:45:24;5.97;;;3.95;;
7104;SDS011;3594;42.152;24.714;2023-06-14T02:47:50;5.53;;;3.78;;
7104;SDS011;3594;42.152;24.714;2023-06-14T02:50:16;5.13;;;4.05;;
7104;SDS011;3594;42.152;24.714;2023-06-14T02:52:42;5.45;;;3.97;;
7104;SDS011;3594;42.152;24.714;2023-06-14T02:55:09;6.13;;;4.00;;
7104;SDS011;3594;42.152;24.714;2023-06-14T02:57:35;8.73;;;4.32;;
7104;SDS011;3594;42.152;24.714;2023-06-14T03:00:00;5.57;;;4.03;;
7104;SDS011;3594;42.152;24.714;2023-06-14T03:02:25;6.78;;;4.68;;
7104;SDS011;3594;42.152;24.714;2023-06-14T03:04:51;6.05;;;4.07;;
7104;SDS011;3594;42.152;24.714;2023-06-14T03:07:16;5.65;;;4.05;;
7104;SDS011;3594;42.152;24.714;2023-06-14T03:09:44;7.75;;;4.22;;
7104;SDS011;3594;42.152;24.714;2023-06-14T03:12:10;8.30;;;4.32;;
7104;SDS011;3594;42.152;24.714;2023-06-14T03:14:36;8.32;;;4.88;;
7104;SDS011;3594;42.152;24.714;2023-06-14T03:17:02;6.75;;;4.75;;
7104;SDS011;3594;42.152;24.714;2023-06-14T03:19:29;7.18;;;5.05;;
7104;SDS011;3594;42.152;24.714;2023-06-14T03:21:55;10.18;;;5.32;;
7104;SDS011;3594;42.152;24.714;2023-06-14T03:24:22;7.30;;;5.05;;
7104;SDS011;3594;42.152;24.714;2023-06-14T03:26:49;8.80;;;5.75;;
7104;SDS011;3594;42.152;24.714;2023-06-14T03:29:14;8.23;;;5.53;;
7104;SDS011;3594;42.152;24.714;2023-06-14T03:31:55;9.55;;;5.38;;
7104;SDS011;3594;42.152;24.714;2023-06-14T03:34:23;7.90;;;5.13;;
7104;SDS011;3594;42.152;24.714;2023-06-14T03:36:48;6.43;;;4.85;;
7104;SDS011;3594;42.152;24.714;2023-06-14T03:39:14;8.45;;;5.65;;
7104;SDS011;3594;42.152;24.714;2023-06-14T03:41:40;7.90;;;5.07;;
7104;SDS011;3594;42.152;24.714;2023-06-14T03:44:05;8.90;;;5.20;;
7104;SDS011;3594;42.152;24.714;2023-06-14T03:46:30;7.32;;;5.35;;
7104;SDS011;3594;42.152;24.714;2023-06-14T03:48:56;9.80;;;5.18;;
7104;SDS011;3594;42.152;24.714;2023-06-14T03:51:22;7.55;;;4.93;;
7104;SDS011;3594;42.152;24.714;2023-06-14T03:53:47;6.95;;;5.00;;
7104;SDS011;3594;42.152;24.714;2023-06-14T03:56:13;7.38;;;5.03;;
7104;SDS011;3594;42.152;24.714;2023-06-14T03:58:38;7.10;;;5.00;;
7104;SDS011;3594;42.152;24.714;2023-06-14T04:01:04;6.78;;;5.03;;
7104;SDS011;3594;42.152;24.714;2023-06-14T04:03:29;9.25;;;5.35;;
7104;SDS011;3594;42.152;24.714;2023-06-14T04:05:54;7.20;;;5.03;;
7104;SDS011;3594;42.152;24.714;2023-06-14T04:08:21;7.07;;;4.60;;
7104;SDS011;3594;42.152;24.714;2023-06-14T04:10:47;8.60;;;5.00;;
7104;SDS011;3594;42.152;24.714;2023-06-14T04:13:12;8.50;;;4.95;;
7104;SDS011;3594;42.152;24.714;2023-06-14T04:15:38;6.82;;;4.82;;
7104;SDS011;3594;42.152;24.714;2023-06-14T04:18:07;6.70;;;4.53;;
7104;SDS011;3594;42.152;24.714;2023-06-14T04:20:33;8.82;;;5.00;;
7104;SDS011;3594;42.152;24.714;2023-06-14T04:23:10;7.95;;;4.78;;
7104;SDS011;3594;42.152;24.714;2023-06-14T04:25:40;7.70;;;4.78;;
7104;SDS011;3594;42.152;24.714;2023-06-14T04:28:05;6.95;;;4.70;;
7104;SDS011;3594;42.152;24.714;2023-06-14T04:30:34;8.32;;;5.28;;
7104;SDS011;3594;42.152;24.714;2023-06-14T04:33:01;8.25;;;5.38;;
7104;SDS011;3594;42.152;24.714;2023-06-14T04:35:31;6.90;;;4.65;;
7104;SDS011;3594;42.152;24.714;2023-06-14T04:37:57;7.60;;;4.85;;
7104;SDS011;3594;42.152;24.714;2023-06-14T04:40:24;8.07;;;4.88;;
7104;SDS011;3594;42.152;24.714;2023-06-14T04:42:49;8.70;;;5.18;;
7104;SDS011;3594;42.152;24.714;2023-06-14T04:45:16;8.40;;;4.93;;
7104;SDS011;3594;42.152;24.714;2023-06-14T04:47:42;10.68;;;5.80;;
7104;SDS011;3594;42.152;24.714;2023-06-14T04:50:09;7.82;;;5.30;;
7104;SDS011;3594;42.152;24.714;2023-06-14T04:52:36;9.43;;;5.60;;
7104;SDS011;3594;42.152;24.714;2023-06-14T04:55:02;9.07;;;5.28;;
7104;SDS011;3594;42.152;24.714;2023-06-14T04:57:28;8.63;;;5.80;;
7104;SDS011;3594;42.152;24.714;2023-06-14T04:59:54;7.60;;;5.25;;
7104;SDS011;3594;42.152;24.714;2023-06-14T05:02:23;7.90;;;5.40;;
7104;SDS011;3594;42.152;24.714;2023-06-14T05:04:49;8.85;;;5.45;;
7104;SDS011;3594;42.152;24.714;2023-06-14T05:07:15;8.43;;;4.78;;
7104;SDS011;3594;42.152;24.714;2023-06-14T05:09:40;7.28;;;5.28;;
7104;SDS011;3594;42.152;24.714;2023-06-14T05:12:06;6.88;;;4.90;;
7104;SDS011;3594;42.152;24.714;2023-06-14T05:14:35;8.02;;;5.00;;
7104;SDS011;3594;42.152;24.714;2023-06-14T05:17:00;10.15;;;5.53;;
7104;SDS011;3594;42.152;24.714;2023-06-14T05:19:27;9.52;;;5.93;;
7104;SDS011;3594;42.152;24.714;2023-06-14T05:21:53;11.25;;;5.80;;
7104;SDS011;3594;42.152;24.714;2023-06-14T05:24:18;7.07;;;4.70;;
7104;SDS011;3594;42.152;24.714;2023-06-14T05:26:45;7.47;;;5.00;;
7104;SDS011;3594;42.152;24.714;2023-06-14T05:29:11;8.00;;;5.53;;
7104;SDS011;3594;42.152;24.714;2023-06-14T05:31:36;10.27;;;5.57;;
7104;SDS011;3594;42.152;24.714;2023-06-14T05:34:02;9.63;;;5.53;;
7104;SDS011;3594;42.152;24.714;2023-06-14T05:36:28;9.45;;;5.95;;
7104;SDS011;3594;42.152;24.714;2023-06-14T05:38:54;9.20;;;5.70;;
7104;SDS011;3594;42.152;24.714;2023-06-14T05:41:27;9.38;;;5.93;;
7104;SDS011;3594;42.152;24.714;2023-06-14T05:43:56;9.35;;;5.55;;
7104;SDS011;3594;42.152;24.714;2023-06-14T05:46:22;11.65;;;6.97;;
7104;SDS011;3594;42.152;24.714;2023-06-14T05:48:53;9.90;;;6.38;;
7104;SDS011;3594;42.152;24.714;2023-06-14T05:51:20;14.32;;;7.05;;
7104;SDS011;3594;42.152;24.714;2023-06-14T05:53:46;9.48;;;5.63;;
7104;SDS011;3594;42.152;24.714;2023-06-14T05:56:12;10.68;;;5.85;;
7104;SDS011;3594;42.152;24.714;2023-06-14T05:58:38;11.15;;;6.13;;
7104;SDS011;3594;42.152;24.714;2023-06-14T06:01:04;9.35;;;6.10;;
7104;SDS011;3594;42.152;24.714;2023-06-14T06:03:29;11.50;;;6.35;;
7104;SDS011;3594;42.152;24.714;2023-06-14T06:05:55;15.55;;;7.38;;
7104;SDS011;3594;42.152;24.714;2023-06-14T06:08:20;13.48;;;6.50;;
7104;SDS011;3594;42.152;24.714;2023-06-14T06:10:46;12.68;;;7.10;;
7104;SDS011;3594;42.152;24.714;2023-06-14T06:13:12;11.98;;;6.78;;
7104;SDS011;3594;42.152;24.714;2023-06-14T06:15:37;10.20;;;6.32;;
7104;SDS011;3594;42.152;24.714;2023-06-14T06:18:03;13.48;;;7.05;;
7104;SDS011;3594;42.152;24.714;2023-06-14T06:20:29;15.88;;;7.45;;
7104;SDS011;3594;42.152;24.714;2023-06-14T06:22:57;12.07;;;7.25;;
7104;SDS011;3594;42.152;24.714;2023-06-14T06:25:23;12.75;;;7.55;;
7104;SDS011;3594;42.152;24.714;2023-06-14T06:27:50;14.60;;;6.78;;
7104;SDS011;3594;42.152;24.714;2023-06-14T06:30:17;10.68;;;6.32;;
7104;SDS011;3594;42.152;24.714;2023-06-14T06:32:42;11.63;;;6.90;;
7104;SDS011;3594;42.152;24.714;2023-06-14T06:35:08;10.65;;;6.45;;
7104;SDS011;3594;42.152;24.714;2023-06-14T06:37:35;12.82;;;6.53;;
7104;SDS011;3594;42.152;24.714;2023-06-14T06:40:02;10.75;;;6.20;;
7104;SDS011;3594;42.152;24.714;2023-06-14T06:42:30;9.18;;;5.68;;
7104;SDS011;3594;42.152;24.714;2023-06-14T06:44:56;11.10;;;5.40;;
7104;SDS011;3594;42.152;24.714;2023-06-14T06:47:22;8.82;;;5.43;;
7104;SDS011;3594;42.152;24.714;2023-06-14T06:49:47;9.55;;;5.43;;
7104;SDS011;3594;42.152;24.714;2023-06-14T06:52:13;9.90;;;5.93;;
7104;SDS011;3594;42.152;24.714;2023-06-14T06:54:38;8.95;;;6.00;;
7104;SDS011;3594;42.152;24.714;2023-06-14T06:57:04;9.85;;;5.80;;
7104;SDS011;3594;42.152;24.714;2023-06-14T06:59:31;9.98;;;5.88;;
7104;SDS011;3594;42.152;24.714;2023-06-14T07:01:57;8.50;;;5.47;;
7104;SDS011;3594;42.152;24.714;2023-06-14T07:04:22;8.88;;;5.60;;
7104;SDS011;3594;42.152;24.714;2023-06-14T07:06:48;10.80;;;6.13;;
7104;SDS011;3594;42.152;24.714;2023-06-14T07:09:14;11.90;;;6.13;;
7104;SDS011;3594;42.152;24.714;2023-06-14T07:11:41;10.52;;;6.15;;
7104;SDS011;3594;42.152;24.714;2023-06-14T07:14:07;11.15;;;5.88;;
7104;SDS011;3594;42.152;24.714;2023-06-14T07:16:33;10.80;;;5.32;;
7104;SDS011;3594;42.152;24.714;2023-06-14T07:18:58;9.45;;;5.43;;
7104;SDS011;3594;42.152;24.714;2023-06-14T07:21:25;16.60;;;5.63;;
7104;SDS011;3594;42.152;24.714;2023-06-14T07:23:53;8.93;;;5.32;;
7104;SDS011;3594;42.152;24.714;2023-06-14T07:26:19;9.52;;;5.25;;
7104;SDS011;3594;42.152;24.714;2023-06-14T07:28:45;9.43;;;5.88;;
7104;SDS011;3594;42.152;24.714;2023-06-14T07:31:11;8.80;;;4.95;;
7104;SDS011;3594;42.152;24.714;2023-06-14T07:33:37;10.13;;;5.93;;
7104;SDS011;3594;42.152;24.714;2023-06-14T07:36:03;8.93;;;5.75;;
7104;SDS011;3594;42.152;24.714;2023-06-14T07:38:29;8.05;;;5.38;;
7104;SDS011;3594;42.152;24.714;2023-06-14T07:40:54;11.32;;;6.55;;
7104;SDS011;3594;42.152;24.714;2023-06-14T07:43:19;10.93;;;7.00;;
7104;SDS011;3594;42.152;24.714;2023-06-14T07:45:45;10.10;;;6.70;;
7104;SDS011;3594;42.152;24.714;2023-06-14T07:48:11;12.90;;;7.00;;
7104;SDS011;3594;42.152;24.714;2023-06-14T07:50:36;12.48;;;6.78;;
7104;SDS011;3594;42.152;24.714;2023-06-14T07:53:02;10.98;;;6.50;;
7104;SDS011;3594;42.152;24.714;2023-06-14T07:55:27;8.60;;;5.97;;
7104;SDS011;3594;42.152;24.714;2023-06-14T07:57:53;13.82;;;6.95;;
7104;SDS011;3594;42.152;24.714;2023-06-14T08:00:19;16.50;;;7.43;;
7104;SDS011;3594;42.152;24.714;2023-06-14T08:02:45;11.13;;;7.07;;
7104;SDS011;3594;42.152;24.714;2023-06-14T08:05:11;10.27;;;6.20;;
7104;SDS011;3594;42.152;24.714;2023-06-14T08:07:38;10.82;;;7.22;;
7104;SDS011;3594;42.152;24.714;2023-06-14T08:10:07;10.75;;;6.50;;
7104;SDS011;3594;42.152;24.714;2023-06-14T08:12:33;12.55;;;6.90;;
7104;SDS011;3594;42.152;24.714;2023-06-14T08:14:59;9.93;;;6.60;;
7104;SDS011;3594;42.152;24.714;2023-06-14T08:17:26;11.07;;;6.55;;
7104;SDS011;3594;42.152;24.714;2023-06-14T08:19:52;9.05;;;6.85;;
7104;SDS011;3594;42.152;24.714;2023-06-14T08:22:22;16.35;;;6.82;;
7104;SDS011;3594;42.152;24.714;2023-06-14T08:24:49;10.32;;;6.60;;
7104;SDS011;3594;42.152;24.714;2023-06-14T08:27:14;11.70;;;7.22;;
7104;SDS011;3594;42.152;24.714;2023-06-14T08:29:40;11.40;;;7.18;;
7104;SDS011;3594;42.152;24.714;2023-06-14T08:32:06;9.30;;;6.10;;
7104;SDS011;3594;42.152;24.714;2023-06-14T08:34:32;12.55;;;7.25;;
7104;SDS011;3594;42.152;24.714;2023-06-14T08:36:57;11.90;;;7.15;;
7104;SDS011;3594;42.152;24.714;2023-06-14T08:39:23;11.65;;;7.70;;
7104;SDS011;3594;42.152;24.714;2023-06-14T08:41:48;11.20;;;7.60;;
7104;SDS011;3594;42.152;24.714;2023-06-14T08:44:16;9.88;;;6.82;;
7104;SDS011;3594;42.152;24.714;2023-06-14T08:46:42;12.85;;;6.97;;
7104;SDS011;3594;42.152;24.714;2023-06-14T08:49:08;9.30;;;6.60;;
7104;SDS011;3594;42.152;24.714;2023-06-14T08:51:36;10.55;;;6.70;;
7104;SDS011;3594;42.152;24.714;2023-06-14T08:54:02;10.38;;;6.90;;
7104;SDS011;3594;42.152;24.714;2023-06-14T08:56:29;11.57;;;7.60;;
7104;SDS011;3594;42.152;24.714;2023-06-14T08:58:56;12.38;;;7.50;;
7104;SDS011;3594;42.152;24.714;2023-06-14T09:01:28;11.57;;;7.28;;
7104;SDS011;3594;42.152;24.714;2023-06-14T09:03:56;12.07;;;6.97;;
7104;SDS011;3594;42.152;24.714;2023-06-14T09:06:22;10.68;;;7.07;;
7104;SDS011;3594;42.152;24.714;2023-06-14T09:08:50;12.10;;;7.35;;
7104;SDS011;3594;42.152;24.714;2023-06-14T09:11:18;10.07;;;7.05;;
7104;SDS011;3594;42.152;24.714;2023-06-14T09:13:44;9.65;;;6.50;;
7104;SDS011;3594;42.152;24.714;2023-06-14T09:16:10;12.60;;;7.30;;
7104;SDS011;3594;42.152;24.714;2023-06-14T09:18:40;11.43;;;7.80;;
7104;SDS011;3594;42.152;24.714;2023-06-14T09:21:08;11.50;;;7.35;;
7104;SDS011;3594;42.152;24.714;2023-06-14T09:23:38;9.70;;;7.10;;
7104;SDS011;3594;42.152;24.714;2023-06-14T09:28:43;10.35;;;7.07;;
7104;SDS011;3594;42.152;24.714;2023-06-14T09:31:13;12.05;;;8.10;;
7104;SDS011;3594;42.152;24.714;2023-06-14T09:33:49;10.32;;;6.30;;
7104;SDS011;3594;42.152;24.714;2023-06-14T09:36:20;11.13;;;7.43;;
7104;SDS011;3594;42.152;24.714;2023-06-14T09:38:57;10.27;;;7.20;;
7104;SDS011;3594;42.152;24.714;2023-06-14T09:41:34;10.38;;;6.95;;
7104;SDS011;3594;42.152;24.714;2023-06-14T09:44:05;10.70;;;7.07;;
7104;SDS011;3594;42.152;24.714;2023-06-14T09:46:32;9.90;;;6.82;;
7104;SDS011;3594;42.152;24.714;2023-06-14T09:49:00;10.80;;;6.75;;
7104;SDS011;3594;42.152;24.714;2023-06-14T09:51:26;11.02;;;7.25;;
7104;SDS011;3594;42.152;24.714;2023-06-14T09:53:52;10.02;;;6.63;;
7104;SDS011;3594;42.152;24.714;2023-06-14T09:56:25;11.35;;;6.88;;
7104;SDS011;3594;42.152;24.714;2023-06-14T09:58:57;11.63;;;7.28;;
7104;SDS011;3594;42.152;24.714;2023-06-14T10:01:24;8.93;;;6.78;;
7104;SDS011;3594;42.152;24.714;2023-06-14T10:04:00;13.55;;;7.28;;
7104;SDS011;3594;42.152;24.714;2023-06-14T10:06:28;11.95;;;7.47;;
7104;SDS011;3594;42.152;24.714;2023-06-14T10:08:57;10.25;;;6.70;;
7104;SDS011;3594;42.152;24.714;2023-06-14T10:11:25;10.75;;;6.75;;
7104;SDS011;3594;42.152;24.714;2023-06-14T10:13:51;9.48;;;6.43;;
7104;SDS011;3594;42.152;24.714;2023-06-14T10:16:20;10.05;;;6.70;;
7104;SDS011;3594;42.152;24.714;2023-06-14T10:24:43;10.55;;;7.53;;
7104;SDS011;3594;42.152;24.714;2023-06-14T10:27:09;10.63;;;7.13;;
7104;SDS011;3594;42.152;24.714;2023-06-14T10:32:18;12.63;;;7.53;;
7104;SDS011;3594;42.152;24.714;2023-06-14T10:34:44;9.90;;;6.68;;
7104;SDS011;3594;42.152;24.714;2023-06-14T10:37:13;9.77;;;7.30;;
7104;SDS011;3594;42.152;24.714;2023-06-14T10:39:43;10.82;;;7.20;;
7104;SDS011;3594;42.152;24.714;2023-06-14T10:42:12;11.43;;;7.40;;
7104;SDS011;3594;42.152;24.714;2023-06-14T10:44:40;10.13;;;7.30;;
7104;SDS011;3594;42.152;24.714;2023-06-14T10:47:11;9.45;;;6.75;;
7104;SDS011;3594;42.152;24.714;2023-06-14T10:50:04;11.18;;;7.40;;
7104;SDS011;3594;42.152;24.714;2023-06-14T10:52:35;12.00;;;7.45;;
7104;SDS011;3594;42.152;24.714;2023-06-14T10:55:08;9.75;;;6.93;;
7104;SDS011;3594;42.152;24.714;2023-06-14T11:00:08;10.13;;;6.82;;
7104;SDS011;3594;42.152;24.714;2023-06-14T11:05:28;10.50;;;6.90;;
7104;SDS011;3594;42.152;24.714;2023-06-14T11:10:39;10.55;;;6.40;;
7104;SDS011;3594;42.152;24.714;2023-06-14T11:13:06;10.48;;;7.07;;
7104;SDS011;3594;42.152;24.714;2023-06-14T11:15:33;8.85;;;6.20;;
7104;SDS011;3594;42.152;24.714;2023-06-14T11:18:00;9.50;;;6.80;;
7104;SDS011;3594;42.152;24.714;2023-06-14T11:20:29;10.90;;;7.10;;
7104;SDS011;3594;42.152;24.714;2023-06-14T11:22:55;9.98;;;6.63;;
7104;SDS011;3594;42.152;24.714;2023-06-14T11:25:21;8.07;;;5.97;;
7104;SDS011;3594;42.152;24.714;2023-06-14T11:27:48;9.15;;;6.55;;
7104;SDS011;3594;42.152;24.714;2023-06-14T11:30:15;8.45;;;5.88;;
7104;SDS011;3594;42.152;24.714;2023-06-14T11:32:41;10.82;;;7.38;;
7104;SDS011;3594;42.152;24.714;2023-06-14T11:35:07;9.15;;;6.45;;
7104;SDS011;3594;42.152;24.714;2023-06-14T11:37:35;8.57;;;6.03;;
7104;SDS011;3594;42.152;24.714;2023-06-14T11:40:02;8.85;;;6.45;;
7104;SDS011;3594;42.152;24.714;2023-06-14T11:42:33;13.27;;;7.65;;
7104;SDS011;3594;42.152;24.714;2023-06-14T11:44:58;10.57;;;7.07;;
7104;SDS011;3594;42.152;24.714;2023-06-14T11:47:24;10.50;;;7.20;;
7104;SDS011;3594;42.152;24.714;2023-06-14T11:49:50;8.60;;;6.32;;
7104;SDS011;3594;42.152;24.714;2023-06-14T11:52:16;12.93;;;6.75;;
7104;SDS011;3594;42.152;24.714;2023-06-14T11:54:41;10.02;;;7.10;;
7104;SDS011;3594;42.152;24.714;2023-06-14T11:57:07;11.20;;;7.13;;
7104;SDS011;3594;42.152;24.714;2023-06-14T11:59:39;10.90;;;6.95;;
7104;SDS011;3594;42.152;24.714;2023-06-14T12:02:06;10.75;;;6.88;;
7104;SDS011;3594;42.152;24.714;2023-06-14T12:04:32;8.77;;;6.32;;
7104;SDS011;3594;42.152;24.714;2023-06-14T12:07:08;11.38;;;7.28;;
7104;SDS011;3594;42.152;24.714;2023-06-14T12:09:37;12.45;;;8.20;;
7104;SDS011;3594;42.152;24.714;2023-06-14T12:12:02;11.55;;;7.80;;
7104;SDS011;3594;42.152;24.714;2023-06-14T12:14:31;10.65;;;7.13;;
7104;SDS011;3594;42.152;24.714;2023-06-14T12:17:04;13.63;;;7.85;;
7104;SDS011;3594;42.152;24.714;2023-06-14T12:19:33;11.20;;;7.65;;
7104;SDS011;3594;42.152;24.714;2023-06-14T12:22:06;10.88;;;7.35;;
7104;SDS011;3594;42.152;24.714;2023-06-14T12:24:31;11.20;;;7.03;;
7104;SDS011;3594;42.152;24.714;2023-06-14T12:26:57;12.07;;;7.63;;
7104;SDS011;3594;42.152;24.714;2023-06-14T12:29:29;11.13;;;6.95;;
7104;SDS011;3594;42.152;24.714;2023-06-14T12:31:55;10.68;;;6.93;;
7104;SDS011;3594;42.152;24.714;2023-06-14T12:34:22;10.68;;;7.03;;
7104;SDS011;3594;42.152;24.714;2023-06-14T12:36:52;9.23;;;6.82;;
7104;SDS011;3594;42.152;24.714;2023-06-14T12:39:21;11.93;;;7.18;;
7104;SDS011;3594;42.152;24.714;2023-06-14T12:41:47;9.05;;;7.13;;
7104;SDS011;3594;42.152;24.714;2023-06-14T12:44:13;10.25;;;7.25;;
7104;SDS011;3594;42.152;24.714;2023-06-14T12:46:40;9.48;;;6.93;;
7104;SDS011;3594;42.152;24.714;2023-06-14T12:49:10;10.98;;;6.82;;
7104;SDS011;3594;42.152;24.714;2023-06-14T12:51:36;11.27;;;7.00;;
7104;SDS011;3594;42.152;24.714;2023-06-14T12:54:02;16.10;;;7.25;;
7104;SDS011;3594;42.152;24.714;2023-06-14T12:56:27;11.52;;;7.30;;
7104;SDS011;3594;42.152;24.714;2023-06-14T12:58:53;11.23;;;7.20;;
7104;SDS011;3594;42.152;24.714;2023-06-14T13:01:19;12.55;;;7.00;;
7104;SDS011;3594;42.152;24.714;2023-06-14T13:03:45;10.10;;;7.15;;
7104;SDS011;3594;42.152;24.714;2023-06-14T13:06:11;10.85;;;7.05;;
7104;SDS011;3594;42.152;24.714;2023-06-14T13:08:37;11.07;;;6.75;;
7104;SDS011;3594;42.152;24.714;2023-06-14T13:11:02;10.35;;;6.60;;
7104;SDS011;3594;42.152;24.714;2023-06-14T13:13:28;11.38;;;6.95;;
7104;SDS011;3594;42.152;24.714;2023-06-14T13:15:53;9.15;;;6.55;;
7104;SDS011;3594;42.152;24.714;2023-06-14T13:18:18;11.13;;;6.63;;
7104;SDS011;3594;42.152;24.714;2023-06-14T13:20:45;9.68;;;6.22;;
7104;SDS011;3594;42.152;24.714;2023-06-14T13:23:10;8.63;;;6.10;;
7104;SDS011;3594;42.152;24.714;2023-06-14T13:25:36;9.57;;;6.40;;
7104;SDS011;3594;42.152;24.714;2023-06-14T13:28:03;8.90;;;5.82;;
7104;SDS011;3594;42.152;24.714;2023-06-14T13:30:30;10.57;;;6.38;;
7104;SDS011;3594;42.152;24.714;2023-06-14T13:32:56;9.70;;;6.22;;
7104;SDS011;3594;42.152;24.714;2023-06-14T13:35:22;8.43;;;6.03;;
7104;SDS011;3594;42.152;24.714;2023-06-14T13:37:48;9.98;;;6.60;;
7104;SDS011;3594;42.152;24.714;2023-06-14T13:40:14;14.77;;;6.55;;
7104;SDS011;3594;42.152;24.714;2023-06-14T13:42:40;11.98;;;6.80;;
7104;SDS011;3594;42.152;24.714;2023-06-14T13:45:06;11.60;;;6.57;;
7104;SDS011;3594;42.152;24.714;2023-06-14T13:47:32;14.77;;;7.28;;
7104;SDS011;3594;42.152;24.714;2023-06-14T13:49:57;9.82;;;6.78;;
7104;SDS011;3594;42.152;24.714;2023-06-14T13:52:23;11.88;;;6.78;;
7104;SDS011;3594;42.152;24.714;2023-06-14T13:54:49;11.82;;;7.50;;
7104;SDS011;3594;42.152;24.714;2023-06-14T13:57:15;12.85;;;7.80;;
7104;SDS011;3594;42.152;24.714;2023-06-14T13:59:41;9.80;;;7.07;;
7104;SDS011;3594;42.152;24.714;2023-06-14T14:02:07;10.65;;;6.68;;
7104;SDS011;3594;42.152;24.714;2023-06-14T14:04:33;10.77;;;6.55;;
7104;SDS011;3594;42.152;24.714;2023-06-14T14:07:02;11.55;;;6.63;;
7104;SDS011;3594;42.152;24.714;2023-06-14T14:09:28;10.38;;;6.97;;
7104;SDS011;3594;42.152;24.714;2023-06-14T14:11:54;9.38;;;6.22;;
7104;SDS011;3594;42.152;24.714;2023-06-14T14:14:19;8.98;;;6.28;;
7104;SDS011;3594;42.152;24.714;2023-06-14T14:16:45;9.25;;;6.20;;
7104;SDS011;3594;42.152;24.714;2023-06-14T14:19:11;8.00;;;5.57;;
7104;SDS011;3594;42.152;24.714;2023-06-14T14:21:38;9.10;;;5.47;;
7104;SDS011;3594;42.152;24.714;2023-06-14T14:24:03;8.07;;;5.72;;
7104;SDS011;3594;42.152;24.714;2023-06-14T14:26:29;6.90;;;4.88;;
7104;SDS011;3594;42.152;24.714;2023-06-14T14:28:55;6.30;;;4.82;;
7104;SDS011;3594;42.152;24.714;2023-06-14T14:31:20;6.43;;;4.25;;
7104;SDS011;3594;42.152;24.714;2023-06-14T14:33:46;6.95;;;4.82;;
7104;SDS011;3594;42.152;24.714;2023-06-14T14:36:12;6.40;;;4.78;;
7104;SDS011;3594;42.152;24.714;2023-06-14T14:38:38;6.70;;;4.70;;
7104;SDS011;3594;42.152;24.714;2023-06-14T14:41:04;6.63;;;4.50;;
7104;SDS011;3594;42.152;24.714;2023-06-14T14:43:30;6.25;;;4.78;;
7104;SDS011;3594;42.152;24.714;2023-06-14T14:45:57;5.82;;;4.22;;
7104;SDS011;3594;42.152;24.714;2023-06-14T14:48:22;6.40;;;4.13;;
7104;SDS011;3594;42.152;24.714;2023-06-14T14:50:48;6.07;;;4.50;;
7104;SDS011;3594;42.152;24.714;2023-06-14T14:53:13;7.13;;;4.18;;
7104;SDS011;3594;42.152;24.714;2023-06-14T14:55:43;5.47;;;4.30;;
7104;SDS011;3594;42.152;24.714;2023-06-14T14:58:08;6.10;;;4.38;;
7104;SDS011;3594;42.152;24.714;2023-06-14T15:00:34;5.03;;;3.90;;
7104;SDS011;3594;42.152;24.714;2023-06-14T15:03:00;5.00;;;3.70;;
7104;SDS011;3594;42.152;24.714;2023-06-14T15:05:25;5.78;;;3.90;;
7104;SDS011;3594;42.152;24.714;2023-06-14T15:07:51;5.38;;;3.58;;
7104;SDS011;3594;42.152;24.714;2023-06-14T15:10:16;5.93;;;4.07;;
7104;SDS011;3594;42.152;24.714;2023-06-14T15:12:42;5.60;;;3.70;;
7104;SDS011;3594;42.152;24.714;2023-06-14T15:15:07;6.90;;;4.05;;
7104;SDS011;3594;42.152;24.714;2023-06-14T15:17:34;4.25;;;3.53;;
7104;SDS011;3594;42.152;24.714;2023-06-14T15:19:59;5.43;;;3.78;;
7104;SDS011;3594;42.152;24.714;2023-06-14T15:22:25;6.18;;;4.07;;